Time;durP1;ratioP1;P1;durP2;ratioP2;P2;SDS_P1;SDS_P2;PMS_P1;PMS_P2;Temp;Humidity;BMP_temperature;BMP_pressure;BME280_temperature;BME280_humidity;BME280_pressure;Samples;Min_cycle;Max_cycle;Signal;HPM_P1;HPM_P2
2023/03/23 00:01:19;;;;;;;10.90;8.57;;;10.80;99.90;;;;;;6184255;23;20501;-57
2023/03/23 00:03:49;;;;;;;14.00;9.52;;;10.80;99.90;;;;;;6211192;23;20008;-58
2023/03/23 00:06:17;;;;;;;11.27;9.23;;;10.80;99.90;;;;;;6212370;23;20012;-62
2023/03/23 00:08:49;;;;;;;12.70;10.05;;;10.80;99.90;;;;;;6211824;23;20442;-57
2023/03/23 00:11:20;;;;;;;11.98;8.88;;;10.80;99.90;;;;;;6212303;23;20021;-59
2023/03/23 00:13:50;;;;;;;13.98;10.15;;;10.80;99.90;;;;;;6210541;23;20466;-57
2023/03/23 00:16:17;;;;;;;17.08;13.52;;;10.80;99.90;;;;;;6211450;23;20071;-60
2023/03/23 00:18:47;;;;;;;17.85;15.15;;;10.80;99.90;;;;;;6210543;23;20041;-59
2023/03/23 00:21:13;;;;;;;22.58;17.10;;;10.80;99.90;;;;;;6184414;23;20012;-57
2023/03/23 00:23:39;;;;;;;26.13;20.23;;;10.80;99.90;;;;;;6212711;23;20008;-61
2023/03/23 00:26:05;;;;;;;28.60;20.40;;;10.90;99.90;;;;;;6211341;23;20016;-59
2023/03/23 00:28:31;;;;;;;26.35;21.30;;;10.90;99.90;;;;;;6209629;23;20331;-56
2023/03/23 00:30:59;;;;;;;28.88;21.30;;;10.90;99.90;;;;;;6209924;23;20460;-58
2023/03/23 00:33:28;;;;;;;32.15;22.85;;;10.90;99.90;;;;;;6211086;23;20020;-57
2023/03/23 00:35:54;;;;;;;28.10;22.45;;;10.90;99.90;;;;;;6212160;23;20008;-59
2023/03/23 00:38:24;;;;;;;27.55;20.77;;;10.90;99.90;;;;;;6211463;23;20454;-59
2023/03/23 00:40:51;;;;;;;25.42;21.90;;;10.90;99.90;;;;;;6211226;23;20351;-59
2023/03/23 00:43:18;;;;;;;29.05;21.45;;;10.90;99.90;;;;;;6213230;23;20380;-58
2023/03/23 00:45:52;;;;;;;27.08;20.05;;;10.90;99.90;;;;;;6185331;23;20034;-59
2023/03/23 00:48:19;;;;;;;23.45;18.10;;;10.90;99.90;;;;;;6184418;23;20019;-58
2023/03/23 00:50:45;;;;;;;22.48;15.32;;;10.90;99.90;;;;;;6209928;23;20012;-57
2023/03/23 00:53:11;;;;;;;18.05;13.88;;;10.90;99.90;;;;;;6210045;23;20461;-60
2023/03/23 00:55:36;;;;;;;13.50;9.30;;;10.90;99.90;;;;;;6209714;23;20095;-62
2023/03/23 00:58:02;;;;;;;13.70;9.63;;;10.80;99.90;;;;;;6211733;23;20013;-58
2023/03/23 01:00:28;;;;;;;11.00;8.57;;;10.80;99.90;;;;;;6184459;23;20021;-59
2023/03/23 01:02:54;;;;;;;11.15;7.53;;;10.80;99.90;;;;;;6208146;23;20108;-60
2023/03/23 01:05:20;;;;;;;11.23;8.07;;;10.80;99.90;;;;;;6183726;23;20465;-60
2023/03/23 01:07:48;;;;;;;11.27;7.82;;;10.80;99.90;;;;;;6183100;23;20024;-60
2023/03/23 01:10:17;;;;;;;10.48;7.80;;;10.80;99.90;;;;;;6210881;23;20013;-61
2023/03/23 01:12:45;;;;;;;9.93;7.72;;;10.80;99.90;;;;;;6211206;23;20097;-59
2023/03/23 01:15:15;;;;;;;13.55;8.90;;;10.80;99.90;;;;;;6211408;23;20012;-56
2023/03/23 01:17:42;;;;;;;13.77;9.73;;;10.80;99.90;;;;;;6208753;23;20094;-56
2023/03/23 01:20:09;;;;;;;13.02;9.98;;;10.90;99.90;;;;;;6211507;23;20337;-60
2023/03/23 01:22:35;;;;;;;15.77;10.65;;;10.90;99.90;;;;;;6211076;23;20081;-59
2023/03/23 01:25:01;;;;;;;16.13;10.80;;;10.90;99.90;;;;;;6209349;23;20047;-59
2023/03/23 01:27:26;;;;;;;13.77;10.65;;;11.00;99.90;;;;;;6209873;23;20480;-59
2023/03/23 01:29:52;;;;;;;15.20;10.98;;;11.00;99.90;;;;;;6184201;23;20020;-60
2023/03/23 01:32:18;;;;;;;14.77;11.05;;;11.00;99.90;;;;;;6209654;23;20017;-57
2023/03/23 01:34:44;;;;;;;18.85;11.20;;;11.00;99.90;;;;;;6211120;23;20060;-59
2023/03/23 01:37:09;;;;;;;17.38;11.07;;;11.00;99.90;;;;;;6209358;23;20016;-58
2023/03/23 01:39:38;;;;;;;13.73;9.90;;;11.10;99.90;;;;;;6209978;23;20020;-59
2023/03/23 01:42:04;;;;;;;15.18;10.80;;;11.10;99.90;;;;;;6210659;23;20389;-55
2023/03/23 01:44:30;;;;;;;15.60;10.38;;;11.10;99.90;;;;;;6211396;23;20012;-57
2023/03/23 01:46:57;;;;;;;15.20;9.98;;;11.10;99.90;;;;;;6208989;23;20438;-56
2023/03/23 01:49:46;;;;;;;16.20;9.77;;;11.10;99.90;;;;;;6210163;23;20035;-57
2023/03/23 01:52:17;;;;;;;15.82;10.38;;;11.10;99.90;;;;;;6184649;23;20017;-59
2023/03/23 01:54:45;;;;;;;14.60;8.57;;;11.20;99.90;;;;;;6209280;23;20016;-60
2023/03/23 01:57:15;;;;;;;13.55;8.20;;;11.20;99.90;;;;;;6210432;23;20335;-59
2023/03/23 01:59:44;;;;;;;11.82;8.45;;;11.20;99.90;;;;;;6183743;23;20020;-58
2023/03/23 02:02:11;;;;;;;13.60;8.40;;;11.30;99.90;;;;;;6211138;23;20315;-57
2023/03/23 02:04:37;;;;;;;15.75;8.93;;;11.20;99.90;;;;;;6210562;23;20442;-58
2023/03/23 02:07:04;;;;;;;12.63;8.07;;;11.30;99.90;;;;;;6209410;23;20346;-56
2023/03/23 02:09:30;;;;;;;12.05;7.68;;;11.30;99.90;;;;;;6210412;23;20374;-57
2023/03/23 02:11:56;;;;;;;10.80;8.02;;;11.30;99.90;;;;;;6184086;23;20224;-58
2023/03/23 02:14:25;;;;;;;13.68;7.63;;;11.30;99.90;;;;;;6210215;23;20012;-61
2023/03/23 02:17:04;;;;;;;11.35;6.45;;;11.30;99.90;;;;;;6210704;23;20106;-59
2023/03/23 02:19:58;;;;;;;11.70;6.55;;;11.30;99.90;;;;;;6210697;23;20016;-56
2023/03/23 02:23:03;;;;;;;10.02;6.60;;;11.40;99.90;;;;;;6211137;23;20020;-62
2023/03/23 02:25:35;;;;;;;13.00;6.80;;;11.40;99.90;;;;;;6181412;23;20044;-57
2023/03/23 02:29:03;;;;;;;11.48;6.05;;;11.40;99.90;;;;;;6184553;23;20388;-59
2023/03/23 02:32:00;;;;;;;13.73;6.65;;;11.40;99.90;;;;;;6149932;23;20016;-59
2023/03/23 02:34:31;;;;;;;12.43;6.40;;;11.40;99.90;;;;;;6183080;23;20338;-59
2023/03/23 02:37:09;;;;;;;10.27;6.78;;;11.40;99.90;;;;;;6209003;23;20038;-56
2023/03/23 02:39:48;;;;;;;10.68;6.00;;;11.40;99.90;;;;;;6208751;23;20094;-60
2023/03/23 02:42:24;;;;;;;8.75;5.85;;;11.40;99.90;;;;;;6210939;23;20039;-59
2023/03/23 02:44:52;;;;;;;9.85;5.85;;;11.40;99.90;;;;;;6209597;23;20017;-58
2023/03/23 02:47:22;;;;;;;8.98;5.32;;;11.40;99.90;;;;;;6210340;23;20446;-60
2023/03/23 02:49:51;;;;;;;9.93;5.70;;;11.40;99.90;;;;;;6209599;23;20477;-57
2023/03/23 02:52:25;;;;;;;9.35;5.88;;;11.40;99.90;;;;;;6210368;23;20012;-57
2023/03/23 02:54:53;;;;;;;9.68;5.72;;;11.40;99.90;;;;;;6209119;23;20024;-58
2023/03/23 02:57:20;;;;;;;11.13;5.70;;;11.40;99.90;;;;;;6210100;23;20442;-58
2023/03/23 02:59:46;;;;;;;10.15;5.88;;;11.40;99.90;;;;;;6183690;23;20028;-57
2023/03/23 03:02:28;;;;;;;10.50;4.90;;;11.40;99.90;;;;;;6211562;23;20059;-59
2023/03/23 03:05:13;;;;;;;11.38;5.50;;;11.40;99.90;;;;;;6209204;23;20092;-57
2023/03/23 03:07:48;;;;;;;10.85;6.10;;;11.40;99.90;;;;;;6206689;23;20013;-60
2023/03/23 03:10:35;;;;;;;10.57;5.70;;;11.40;99.90;;;;;;6209343;23;20027;-58
2023/03/23 03:13:15;;;;;;;12.90;5.43;;;11.40;99.90;;;;;;6209990;23;20032;-56
2023/03/23 03:15:51;;;;;;;11.23;5.57;;;11.40;99.90;;;;;;6211469;23;20049;-57
2023/03/23 03:18:40;;;;;;;12.13;5.75;;;11.40;99.90;;;;;;6209216;23;20023;-57
2023/03/23 03:21:12;;;;;;;7.82;4.95;;;11.40;99.90;;;;;;6211164;23;20016;-57
2023/03/23 03:23:42;;;;;;;11.20;5.80;;;11.30;99.90;;;;;;6211720;23;20019;-56
2023/03/23 03:26:17;;;;;;;10.57;5.30;;;11.40;99.90;;;;;;6212347;23;20009;-57
2023/03/23 03:28:47;;;;;;;12.35;5.38;;;11.30;99.90;;;;;;6211620;23;20008;-57
2023/03/23 03:31:17;;;;;;;11.98;5.18;;;11.30;99.90;;;;;;6211920;23;20012;-57
2023/03/23 03:33:44;;;;;;;12.45;5.45;;;11.30;99.90;;;;;;6212163;23;20013;-57
2023/03/23 03:36:16;;;;;;;9.00;4.95;;;11.30;99.90;;;;;;6214436;23;20377;-57
2023/03/23 03:38:44;;;;;;;10.55;4.70;;;11.30;99.90;;;;;;6212559;23;20051;-58
2023/03/23 03:41:10;;;;;;;8.18;4.50;;;11.30;99.90;;;;;;6214466;23;20008;-57
2023/03/23 03:43:36;;;;;;;12.40;5.40;;;11.20;99.90;;;;;;6211973;23;20230;-57
2023/03/23 03:46:02;;;;;;;11.13;5.05;;;11.30;99.90;;;;;;6187861;23;20012;-57
2023/03/23 03:48:28;;;;;;;7.32;4.63;;;11.20;99.90;;;;;;6213776;23;20023;-57
2023/03/23 03:50:56;;;;;;;8.77;4.55;;;11.20;99.90;;;;;;6212828;23;20353;-57
2023/03/23 03:53:25;;;;;;;8.52;4.72;;;11.20;99.90;;;;;;6214157;23;20016;-57
2023/03/23 03:55:55;;;;;;;9.73;5.10;;;11.20;99.90;;;;;;6213354;23;20024;-57
2023/03/23 03:58:22;;;;;;;12.38;4.60;;;11.10;99.90;;;;;;6212654;23;20083;-58
2023/03/23 04:00:48;;;;;;;8.55;4.35;;;11.10;99.90;;;;;;6214113;23;20074;-57
2023/03/23 04:03:14;;;;;;;9.48;4.07;;;11.10;99.90;;;;;;6214110;23;20036;-57
2023/03/23 04:05:41;;;;;;;9.73;4.20;;;11.10;99.90;;;;;;6213483;23;20020;-57
2023/03/23 04:08:07;;;;;;;9.32;4.03;;;11.10;99.90;;;;;;6211658;23;20027;-57
2023/03/23 04:10:33;;;;;;;9.43;4.45;;;11.00;99.90;;;;;;6211782;23;20020;-57
2023/03/23 04:12:59;;;;;;;9.45;4.15;;;11.00;99.90;;;;;;6212321;23;20020;-54
2023/03/23 04:15:25;;;;;;;9.43;3.35;;;11.00;99.90;;;;;;6212010;23;20027;-57
2023/03/23 04:17:51;;;;;;;5.45;2.72;;;11.00;99.90;;;;;;6212784;23;20016;-56
2023/03/23 04:20:17;;;;;;;6.75;2.90;;;10.90;99.90;;;;;;6213414;23;20389;-56
2023/03/23 04:22:44;;;;;;;7.70;2.60;;;10.90;99.90;;;;;;6213837;23;20008;-55
2023/03/23 04:25:12;;;;;;;5.50;2.30;;;10.90;99.90;;;;;;6237811;23;20048;-56
2023/03/23 04:27:43;;;;;;;8.15;2.83;;;10.80;99.90;;;;;;6186700;23;20386;-57
2023/03/23 04:30:10;;;;;;;8.02;2.95;;;10.80;99.90;;;;;;6214348;23;20438;-55
2023/03/23 04:32:35;;;;;;;12.82;3.28;;;10.80;99.90;;;;;;6213400;23;20378;-56
2023/03/23 04:35:01;;;;;;;12.70;3.17;;;10.80;99.90;;;;;;6213683;23;20013;-57
2023/03/23 04:37:33;;;;;;;9.05;2.70;;;10.80;99.90;;;;;;6214509;23;20342;-56
2023/03/23 04:40:12;;;;;;;13.18;4.55;;;10.80;99.90;;;;;;6213587;23;20406;-57
2023/03/23 04:42:39;;;;;;;17.25;3.30;;;10.80;99.90;;;;;;6213090;23;20438;-56
2023/03/23 04:45:07;;;;;;;13.77;2.90;;;10.80;99.90;;;;;;6213111;23;20016;-56
2023/03/23 04:47:39;;;;;;;12.30;3.10;;;10.80;99.90;;;;;;6211801;23;20013;-57
2023/03/23 04:50:14;;;;;;;12.50;3.15;;;10.80;99.90;;;;;;6211827;23;20013;-57
2023/03/23 04:52:44;;;;;;;12.57;3.40;;;10.90;99.90;;;;;;6212769;23;20013;-56
2023/03/23 04:55:11;;;;;;;16.13;3.47;;;10.90;99.90;;;;;;6213616;23;20016;-57
2023/03/23 04:57:38;;;;;;;15.27;3.47;;;10.80;99.90;;;;;;6212935;23;20019;-56
2023/03/23 05:00:08;;;;;;;14.90;4.82;;;10.90;99.90;;;;;;6212925;23;20017;-57
2023/03/23 05:02:39;;;;;;;14.90;3.45;;;10.80;99.90;;;;;;6211634;23;20059;-56
2023/03/23 05:05:06;;;;;;;17.85;3.97;;;10.80;99.90;;;;;;6210154;23;20017;-55
2023/03/23 05:07:32;;;;;;;17.05;4.18;;;10.80;99.90;;;;;;6236797;22;20013;-57
2023/03/23 05:09:58;;;;;;;19.67;5.00;;;10.80;99.90;;;;;;6211178;23;20071;-57
2023/03/23 05:12:23;;;;;;;20.35;4.10;;;10.80;99.90;;;;;;6214457;23;20488;-57
2023/03/23 05:14:49;;;;;;;17.05;4.13;;;10.80;99.90;;;;;;6212822;23;20040;-57
2023/03/23 05:17:16;;;;;;;16.05;3.50;;;10.70;99.90;;;;;;6185404;23;20016;-56
2023/03/23 05:19:47;;;;;;;17.13;3.92;;;10.80;99.90;;;;;;6184090;23;20048;-56
2023/03/23 05:22:16;;;;;;;20.52;3.53;;;10.70;99.90;;;;;;6209159;23;20017;-57
2023/03/23 05:24:43;;;;;;;21.45;5.18;;;10.70;99.90;;;;;;6211813;23;20016;-57
2023/03/23 05:27:09;;;;;;;17.15;4.28;;;10.70;99.90;;;;;;6211057;23;20020;-58
2023/03/23 05:29:36;;;;;;;18.73;4.00;;;10.70;99.90;;;;;;6184882;23;20017;-57
2023/03/23 05:32:05;;;;;;;23.33;4.93;;;10.70;99.90;;;;;;6183577;23;20095;-57
2023/03/23 05:34:34;;;;;;;23.30;5.65;;;10.60;99.90;;;;;;6210822;23;20067;-57
2023/03/23 05:37:01;;;;;;;22.55;4.55;;;10.60;99.90;;;;;;6210605;23;20020;-56
2023/03/23 05:39:28;;;;;;;19.63;3.60;;;10.60;99.90;;;;;;6186009;23;20091;-57
2023/03/23 05:41:54;;;;;;;32.50;4.97;;;10.50;99.90;;;;;;6209725;23;20013;-57
2023/03/23 05:44:20;;;;;;;23.38;4.28;;;10.50;99.90;;;;;;6210399;23;20059;-57
2023/03/23 05:46:47;;;;;;;24.08;5.00;;;10.50;99.90;;;;;;6209717;23;20446;-57
2023/03/23 05:49:15;;;;;;;24.65;4.45;;;10.50;99.90;;;;;;6181714;23;20020;-57
2023/03/23 05:51:42;;;;;;;19.75;4.72;;;10.50;99.90;;;;;;6182949;23;20185;-56
2023/03/23 05:54:09;;;;;;;25.45;4.70;;;10.50;99.90;;;;;;6211276;23;20031;-57
2023/03/23 05:56:35;;;;;;;22.30;5.28;;;10.50;99.90;;;;;;6185729;23;20020;-56
2023/03/23 05:59:01;;;;;;;24.75;4.72;;;10.70;99.90;;;;;;6212490;23;20489;-56
2023/03/23 06:01:26;;;;;;;26.98;6.50;;;10.50;99.90;;;;;;6212736;23;20012;-55
2023/03/23 06:03:53;;;;;;;24.33;4.43;;;10.50;99.90;;;;;;6213346;23;20092;-57
2023/03/23 06:06:22;;;;;;;21.10;4.22;;;10.50;99.90;;;;;;6212760;23;20066;-57
2023/03/23 06:08:50;;;;;;;22.27;4.82;;;10.50;99.90;;;;;;6209762;23;20013;-56
2023/03/23 06:11:17;;;;;;;18.75;3.83;;;10.40;99.90;;;;;;6210980;23;20027;-57
2023/03/23 06:13:44;;;;;;;18.17;3.40;;;10.30;99.90;;;;;;6186433;23;20013;-57
2023/03/23 06:16:09;;;;;;;17.77;3.08;;;10.30;99.90;;;;;;6212917;23;20012;-57
2023/03/23 06:18:36;;;;;;;14.93;3.45;;;10.20;99.90;;;;;;6211651;23;20339;-55
2023/03/23 06:21:03;;;;;;;13.10;2.50;;;10.10;99.90;;;;;;6209774;23;20013;-57
2023/03/23 06:23:30;;;;;;;10.80;2.60;;;10.10;99.90;;;;;;6211102;23;20024;-57
2023/03/23 06:25:59;;;;;;;12.38;2.72;;;10.00;99.90;;;;;;6211876;23;20336;-56
2023/03/23 06:28:25;;;;;;;9.63;2.13;;;10.00;99.90;;;;;;6211859;23;20082;-57
2023/03/23 06:30:51;;;;;;;8.18;2.30;;;10.00;99.90;;;;;;6210443;23;20032;-57
2023/03/23 06:33:17;;;;;;;11.85;2.38;;;9.90;99.90;;;;;;6235682;23;20013;-58
2023/03/23 06:35:43;;;;;;;14.13;2.92;;;10.00;99.90;;;;;;6212005;23;20020;-57
2023/03/23 06:38:09;;;;;;;11.57;2.53;;;10.00;99.90;;;;;;6212525;23;20012;-57
2023/03/23 06:40:36;;;;;;;17.05;2.78;;;10.00;99.90;;;;;;6211628;23;20074;-58
2023/03/23 06:43:03;;;;;;;12.93;2.58;;;10.00;99.90;;;;;;6184346;23;20020;-58
2023/03/23 06:45:29;;;;;;;19.98;3.53;;;10.00;99.90;;;;;;6184654;23;20012;-58
2023/03/23 06:47:55;;;;;;;13.45;3.42;;;10.00;99.90;;;;;;6235239;23;20005;-58
2023/03/23 06:50:21;;;;;;;16.13;3.38;;;10.10;99.90;;;;;;6211683;23;20016;-57
2023/03/23 06:52:49;;;;;;;18.25;3.78;;;10.10;99.90;;;;;;6211804;23;20023;-58
2023/03/23 06:55:16;;;;;;;15.32;2.92;;;10.20;99.90;;;;;;6209380;23;20059;-57
2023/03/23 06:57:43;;;;;;;15.38;3.40;;;10.20;99.90;;;;;;6232844;23;20066;-58
2023/03/23 07:00:13;;;;;;;19.17;3.88;;;10.20;99.90;;;;;;6234626;23;20326;-58
2023/03/23 07:02:42;;;;;;;20.80;4.90;;;10.30;99.90;;;;;;6209973;23;20012;-58
2023/03/23 07:05:10;;;;;;;32.88;6.15;;;10.30;99.90;;;;;;6210648;23;20017;-56
2023/03/23 07:07:39;;;;;;;21.73;5.53;;;10.40;99.90;;;;;;6213796;23;20019;-57
2023/03/23 07:10:07;;;;;;;24.38;6.28;;;10.40;99.90;;;;;;6214949;23;20028;-56
2023/03/23 07:12:35;;;;;;;25.90;6.55;;;10.50;99.90;;;;;;6215478;23;20330;-58
2023/03/23 07:15:02;;;;;;;33.95;5.85;;;10.60;99.90;;;;;;6215429;23;20017;-57
2023/03/23 07:17:28;;;;;;;24.00;5.47;;;10.60;99.90;;;;;;6214658;23;20015;-58
2023/03/23 07:19:54;;;;;;;31.13;5.85;;;10.60;99.90;;;;;;6213477;23;20092;-57
2023/03/23 07:22:20;;;;;;;31.63;5.53;;;10.70;99.90;;;;;;6211027;23;20027;-57
2023/03/23 07:24:46;;;;;;;31.35;5.35;;;10.70;99.90;;;;;;6187660;23;20358;-57
2023/03/23 07:27:13;;;;;;;29.67;5.78;;;10.80;99.90;;;;;;6213577;23;20013;-57
2023/03/23 07:29:39;;;;;;;29.63;6.28;;;10.80;99.90;;;;;;6214983;23;20012;-57
2023/03/23 07:32:10;;;;;;;37.63;5.85;;;10.80;99.90;;;;;;6214737;23;20017;-55
2023/03/23 07:34:37;;;;;;;29.55;5.50;;;10.80;99.90;;;;;;6214077;23;20016;-57
2023/03/23 07:37:03;;;;;;;26.15;5.18;;;10.90;99.90;;;;;;6213375;23;20023;-56
2023/03/23 07:39:28;;;;;;;26.27;5.95;;;11.00;99.90;;;;;;6213925;23;20434;-58
2023/03/23 07:41:54;;;;;;;30.60;5.82;;;11.10;99.90;;;;;;6213863;23;20016;-57
2023/03/23 07:44:20;;;;;;;30.02;6.65;;;11.10;99.90;;;;;;6213507;23;20356;-58
2023/03/23 07:46:46;;;;;;;33.92;7.03;;;11.10;99.90;;;;;;6214226;23;20009;-57
2023/03/23 07:49:13;;;;;;;26.10;5.40;;;11.20;99.90;;;;;;6212259;23;20025;-61
2023/03/23 07:51:39;;;;;;;32.58;6.32;;;11.20;99.90;;;;;;6211501;23;20081;-57
2023/03/23 07:54:07;;;;;;;35.88;6.75;;;11.30;99.90;;;;;;6211849;23;20016;-58
2023/03/23 07:56:34;;;;;;;31.20;6.10;;;11.20;99.90;;;;;;6212959;23;20009;-57
2023/03/23 07:59:00;;;;;;;35.70;6.65;;;11.30;99.90;;;;;;6213106;23;20291;-58
2023/03/23 08:01:26;;;;;;;34.05;5.45;;;11.30;99.90;;;;;;6213321;23;20379;-57
2023/03/23 08:03:54;;;;;;;30.20;6.28;;;11.30;99.90;;;;;;6213334;23;20017;-56
2023/03/23 08:06:21;;;;;;;36.08;6.88;;;11.30;99.90;;;;;;6212725;23;20016;-58
2023/03/23 08:08:47;;;;;;;33.47;6.28;;;11.30;99.90;;;;;;6211572;23;20091;-58
2023/03/23 08:11:15;;;;;;;29.45;5.40;;;11.30;99.90;;;;;;6213353;23;20048;-58
2023/03/23 08:13:41;;;;;;;28.83;6.38;;;11.30;99.90;;;;;;6213378;23;20020;-58
2023/03/23 08:16:09;;;;;;;29.20;6.45;;;11.30;99.90;;;;;;6212328;23;20031;-58
2023/03/23 08:18:36;;;;;;;30.25;6.45;;;11.30;99.90;;;;;;6211943;23;20016;-58
2023/03/23 08:21:08;;;;;;;27.63;6.47;;;11.40;99.90;;;;;;6210856;23;20151;-58
2023/03/23 08:23:36;;;;;;;27.70;5.47;;;11.50;99.90;;;;;;6213410;23;20020;-57
2023/03/23 08:26:03;;;;;;;30.08;6.63;;;11.50;99.90;;;;;;6213474;23;20020;-58
2023/03/23 08:28:29;;;;;;;33.05;5.35;;;11.60;99.90;;;;;;6211315;23;20032;-58
2023/03/23 08:30:54;;;;;;;31.42;5.80;;;11.50;99.90;;;;;;6212705;23;20091;-56
2023/03/23 08:33:21;;;;;;;33.03;5.43;;;11.50;99.90;;;;;;6213093;23;20021;-56
2023/03/23 08:35:56;;;;;;;31.13;5.97;;;11.60;99.90;;;;;;6210519;23;20096;-56
2023/03/23 08:38:23;;;;;;;25.27;5.53;;;11.80;99.90;;;;;;6212097;23;20073;-57
2023/03/23 08:40:49;;;;;;;28.08;5.57;;;11.90;99.90;;;;;;6184407;23;20475;-58
2023/03/23 08:43:15;;;;;;;25.20;5.78;;;12.00;99.90;;;;;;6213070;23;20074;-57
2023/03/23 08:45:41;;;;;;;34.03;6.78;;;12.10;99.90;;;;;;6210734;23;20017;-58
2023/03/23 08:48:08;;;;;;;25.92;6.65;;;12.10;99.90;;;;;;6207162;23;20028;-57
2023/03/23 08:50:35;;;;;;;25.77;5.55;;;12.20;99.90;;;;;;6211556;23;20024;-57
2023/03/23 08:53:01;;;;;;;32.05;6.80;;;12.20;99.90;;;;;;6210096;23;20016;-57
2023/03/23 08:55:28;;;;;;;27.88;5.80;;;12.20;99.90;;;;;;6212226;23;20016;-59
2023/03/23 08:57:54;;;;;;;31.52;7.88;;;12.30;99.90;;;;;;6210895;23;20083;-57
2023/03/23 09:00:23;;;;;;;25.00;6.43;;;12.20;99.90;;;;;;6209374;23;20017;-57
2023/03/23 09:02:51;;;;;;;25.15;5.22;;;12.30;99.90;;;;;;6210877;23;20044;-57
2023/03/23 09:05:24;;;;;;;26.40;4.90;;;12.40;99.90;;;;;;6211537;23;20473;-56
2023/03/23 09:07:52;;;;;;;29.73;5.70;;;12.40;99.90;;;;;;6211219;23;20066;-60
2023/03/23 09:10:18;;;;;;;30.40;6.20;;;12.40;99.90;;;;;;6234175;23;20013;-59
2023/03/23 09:12:45;;;;;;;34.10;7.35;;;12.40;99.90;;;;;;6210047;23;20394;-56
2023/03/23 09:15:14;;;;;;;30.65;7.13;;;12.40;99.90;;;;;;6211360;23;20019;-57
2023/03/23 09:17:49;;;;;;;36.17;6.97;;;12.50;99.90;;;;;;6211211;23;20013;-58
2023/03/23 09:20:20;;;;;;;25.92;5.95;;;12.60;99.90;;;;;;6206700;23;20016;-61
2023/03/23 09:22:49;;;;;;;32.75;5.78;;;12.60;99.90;;;;;;6206905;23;20103;-58
2023/03/23 09:25:20;;;;;;;24.98;5.45;;;12.60;99.90;;;;;;6209927;23;20082;-59
2023/03/23 09:27:51;;;;;;;27.85;5.30;;;12.70;99.90;;;;;;6209202;23;20650;-57
2023/03/23 09:30:19;;;;;;;27.55;5.43;;;12.70;99.90;;;;;;6208994;23;20017;-60
2023/03/23 09:32:45;;;;;;;25.75;5.75;;;12.70;99.90;;;;;;6211334;23;20031;-60
2023/03/23 09:35:12;;;;;;;32.58;6.22;;;12.70;99.90;;;;;;6209870;23;20027;-58
2023/03/23 09:37:40;;;;;;;28.52;5.68;;;12.70;99.90;;;;;;6212346;23;20040;-57
2023/03/23 09:40:13;;;;;;;33.55;7.28;;;12.80;99.90;;;;;;6208513;23;20300;-56
2023/03/23 09:43:18;;;;;;;26.83;5.82;;;13.00;99.90;;;;;;6211564;23;20083;-57
2023/03/23 09:45:56;;;;;;;29.40;5.60;;;13.00;99.90;;;;;;6211170;23;20381;-57
2023/03/23 09:48:35;;;;;;;22.40;5.20;;;13.10;99.90;;;;;;6182144;23;20022;-60
2023/03/23 09:51:16;;;;;;;31.63;6.18;;;13.10;99.90;;;;;;6210501;23;20024;-58
2023/03/23 09:53:48;;;;;;;20.30;4.93;;;13.20;99.90;;;;;;6211576;23;20020;-57
2023/03/23 09:56:15;;;;;;;31.33;6.15;;;13.30;99.90;;;;;;6210933;23;20476;-60
2023/03/23 09:58:44;;;;;;;29.02;5.60;;;13.50;99.90;;;;;;6210483;23;20022;-60
2023/03/23 10:01:20;;;;;;;26.70;5.13;;;13.60;99.90;;;;;;6208551;23;20039;-57
2023/03/23 10:04:01;;;;;;;23.77;5.97;;;13.40;99.90;;;;;;6209365;23;20050;-55
2023/03/23 10:06:27;;;;;;;28.15;5.13;;;13.30;99.90;;;;;;6210614;23;20469;-60
2023/03/23 10:08:57;;;;;;;27.23;6.07;;;13.20;99.90;;;;;;6210450;23;20012;-60
2023/03/23 10:11:56;;;;;;;27.35;5.15;;;13.20;99.90;;;;;;6210723;23;20012;-58
2023/03/23 10:14:37;;;;;;;25.75;4.45;;;13.30;99.90;;;;;;6210787;23;20017;-60
2023/03/23 10:17:17;;;;;;;24.52;4.97;;;13.40;99.90;;;;;;6211157;23;20043;-58
2023/03/23 10:19:51;;;;;;;26.63;5.22;;;13.60;99.90;;;;;;6211148;23;20012;-57
2023/03/23 10:22:31;;;;;;;21.63;4.53;;;13.70;99.90;;;;;;6206970;23;20023;-60
2023/03/23 10:25:12;;;;;;;24.63;6.10;;;13.70;99.90;;;;;;6211044;23;20466;-57
2023/03/23 10:27:56;;;;;;;22.40;5.00;;;13.70;99.90;;;;;;6211189;23;20063;-56
2023/03/23 10:30:33;;;;;;;21.77;4.70;;;13.60;99.90;;;;;;6209172;23;20070;-59
2023/03/23 10:33:18;;;;;;;22.13;4.55;;;13.50;99.90;;;;;;6210152;23;20356;-58
2023/03/23 10:35:47;;;;;;;22.63;5.53;;;13.40;99.90;;;;;;6211447;23;20080;-59
2023/03/23 10:38:21;;;;;;;28.17;5.68;;;13.40;99.90;;;;;;6208170;23;20021;-57
2023/03/23 10:40:53;;;;;;;21.23;5.43;;;13.50;99.90;;;;;;6207501;23;20017;-57
2023/03/23 10:43:18;;;;;;;24.45;4.65;;;13.80;99.90;;;;;;6210436;23;20159;-56
2023/03/23 10:45:48;;;;;;;27.95;5.13;;;13.90;99.90;;;;;;6207945;23;20055;-57
2023/03/23 10:48:21;;;;;;;21.65;5.63;;;14.10;99.90;;;;;;6208368;23;20042;-59
2023/03/23 10:50:52;;;;;;;24.02;5.82;;;14.10;99.90;;;;;;6208504;23;20020;-57
2023/03/23 10:53:59;;;;;;;21.48;4.53;;;14.40;99.90;;;;;;6208740;23;20241;-57
2023/03/23 10:56:29;;;;;;;24.33;6.05;;;14.60;99.90;;;;;;6192642;23;20013;-57
2023/03/23 10:58:55;;;;;;;20.98;3.95;;;14.60;99.90;;;;;;6209900;23;20509;-58
2023/03/23 11:01:34;;;;;;;19.75;4.65;;;14.70;99.90;;;;;;6209949;23;20063;-56
2023/03/23 11:04:01;;;;;;;24.17;4.75;;;15.00;99.90;;;;;;6208559;23;20015;-58
2023/03/23 11:06:35;;;;;;;23.40;4.78;;;15.00;99.90;;;;;;6231329;23;20375;-57
2023/03/23 11:09:11;;;;;;;22.13;5.00;;;15.00;99.90;;;;;;6182679;23;20009;-56
2023/03/23 11:11:43;;;;;;;24.98;5.60;;;14.70;99.90;;;;;;6184619;23;20017;-58
2023/03/23 11:14:25;;;;;;;22.42;5.65;;;14.70;99.90;;;;;;6209862;23;20067;-56
2023/03/23 11:17:02;;;;;;;22.60;4.90;;;14.50;99.90;;;;;;6184207;23;20048;-57
2023/03/23 11:19:28;;;;;;;16.13;4.15;;;14.30;99.90;;;;;;6208682;23;20020;-57
2023/03/23 11:22:13;;;;;;;21.95;3.75;;;14.10;99.90;;;;;;6209227;23;20016;-61
2023/03/23 11:24:45;;;;;;;17.17;4.53;;;13.80;99.90;;;;;;6208510;23;20027;-57
2023/03/23 11:27:13;;;;;;;17.25;3.95;;;13.80;99.90;;;;;;6211412;23;20389;-58
2023/03/23 11:29:53;;;;;;;19.85;4.05;;;13.60;99.90;;;;;;6209552;23;20087;-56
2023/03/23 11:32:24;;;;;;;19.88;4.60;;;13.60;99.90;;;;;;6207978;23;20020;-55
2023/03/23 11:34:59;;;;;;;19.75;3.90;;;13.40;99.90;;;;;;6207621;23;20021;-59
2023/03/23 11:37:24;;;;;;;15.75;4.00;;;13.30;99.90;;;;;;6208105;23;20262;-56
2023/03/23 11:39:55;;;;;;;15.73;3.33;;;13.40;99.90;;;;;;6208677;23;20044;-60
2023/03/23 11:42:57;;;;;;;14.77;3.42;;;13.70;99.90;;;;;;6209524;23;20013;-58
2023/03/23 11:45:40;;;;;;;14.95;3.63;;;13.90;99.90;;;;;;6209917;23;20016;-57
2023/03/23 11:48:32;;;;;;;15.63;3.58;;;14.20;99.90;;;;;;6211312;23;20044;-56
2023/03/23 11:51:18;;;;;;;17.00;3.58;;;14.40;99.90;;;;;;6210690;23;20016;-58
2023/03/23 11:53:53;;;;;;;15.35;3.13;;;14.30;99.90;;;;;;6210406;23;20019;-58
2023/03/23 11:56:18;;;;;;;16.77;4.50;;;14.10;99.90;;;;;;6212322;23;20024;-57
2023/03/23 11:58:45;;;;;;;25.08;4.07;;;14.20;99.90;;;;;;6210358;23;20017;-58
2023/03/23 12:01:17;;;;;;;16.52;3.85;;;14.20;99.90;;;;;;6210344;23;20092;-59
2023/03/23 12:04:08;;;;;;;19.00;3.80;;;14.20;99.90;;;;;;6209559;23;20017;-59
2023/03/23 12:07:17;;;;;;;19.48;4.22;;;13.90;99.90;;;;;;6210578;23;20021;-58
2023/03/23 12:10:12;;;;;;;16.55;4.43;;;14.00;99.90;;;;;;6209629;23;20026;-57
2023/03/23 12:12:47;;;;;;;16.80;3.78;;;14.40;99.90;;;;;;6210119;23;20018;-59
2023/03/23 12:15:16;;;;;;;22.80;4.47;;;14.80;99.90;;;;;;6212284;23;20088;-57
2023/03/23 12:18:05;;;;;;;20.90;4.35;;;15.10;99.90;;;;;;6211301;23;20087;-59
2023/03/23 12:20:31;;;;;;;15.40;4.88;;;15.30;99.90;;;;;;6209977;23;20023;-61
2023/03/23 12:23:30;;;;;;;16.80;4.30;;;15.30;99.90;;;;;;6211487;23;20012;-59
2023/03/23 12:26:24;;;;;;;13.50;3.78;;;15.50;99.90;;;;;;6191042;23;20019;-56
2023/03/23 12:28:52;;;;;;;20.63;4.68;;;15.70;99.90;;;;;;6209869;23;20016;-57
2023/03/23 12:31:33;;;;;;;15.63;3.40;;;15.70;99.90;;;;;;6211232;23;20127;-57
2023/03/23 12:34:17;;;;;;;17.08;3.85;;;15.60;99.90;;;;;;6210805;23;20361;-61
2023/03/23 12:36:54;;;;;;;21.13;3.85;;;15.50;99.90;;;;;;6211576;23;20200;-58
2023/03/23 12:39:52;;;;;;;18.35;4.32;;;15.30;99.90;;;;;;6211346;23;20039;-56
2023/03/23 12:42:37;;;;;;;16.65;4.03;;;15.10;99.90;;;;;;6211253;23;20035;-56
2023/03/23 12:45:22;;;;;;;;;;;15.10;99.90;;;;;;6211948;23;20526;-55
2023/03/23 12:48:07;;;;;;;17.27;3.88;;;14.80;99.90;;;;;;6209279;23;19912;-57
2023/03/23 12:50:39;;;;;;;23.25;4.97;;;14.70;99.90;;;;;;6211425;23;20073;-57
2023/03/23 12:53:23;;;;;;;14.35;3.67;;;15.10;99.90;;;;;;6212013;23;20076;-59
2023/03/23 12:55:52;;;;;;;16.65;4.60;;;15.20;99.90;;;;;;6184855;23;20088;-58
2023/03/23 12:58:26;;;;;;;20.45;5.78;;;15.30;99.90;;;;;;6210811;23;20047;-57